sensor_id;sensor_type;location;lat;lon;timestamp;pressure;altitude;pressure_sealevel;temperature;humidity
9839;BME280;4958;48.150;11.506;2023-04-06T00:01:12;95805.44;;;5.50;48.12
9839;BME280;4958;48.150;11.506;2023-04-06T00:03:42;95806.38;;;5.49;47.78
9839;BME280;4958;48.150;11.506;2023-04-06T00:06:09;95806.78;;;5.45;48.09
9839;BME280;4958;48.150;11.506;2023-04-06T00:08:36;95805.59;;;5.39;48.26
9839;BME280;4958;48.150;11.506;2023-04-06T00:11:05;95802.22;;;5.39;48.27
9839;BME280;4958;48.150;11.506;2023-04-06T00:13:31;95800.47;;;5.39;49.12
9839;BME280;4958;48.150;11.506;2023-04-06T00:16:00;95807.44;;;5.47;48.81
9839;BME280;4958;48.150;11.506;2023-04-06T00:18:27;95802.22;;;5.48;48.60
9839;BME280;4958;48.150;11.506;2023-04-06T00:20:54;95797.22;;;5.47;48.30
9839;BME280;4958;48.150;11.506;2023-04-06T00:23:21;95795.38;;;5.39;48.64
9839;BME280;4958;48.150;11.506;2023-04-06T00:25:48;95796.88;;;5.32;49.00
9839;BME280;4958;48.150;11.506;2023-04-06T00:28:14;95794.06;;;5.35;49.00
9839;BME280;4958;48.150;11.506;2023-04-06T00:30:41;95796.88;;;5.32;49.38
9839;BME280;4958;48.150;11.506;2023-04-06T00:33:07;95796.88;;;5.32;49.13
9839;BME280;4958;48.150;11.506;2023-04-06T00:35:34;95801.84;;;5.34;48.84
9839;BME280;4958;48.150;11.506;2023-04-06T00:38:03;95799.03;;;5.27;48.74
9839;BME280;4958;48.150;11.506;2023-04-06T00:40:29;95798.66;;;5.22;49.08
9839;BME280;4958;48.150;11.506;2023-04-06T00:42:57;95795.19;;;5.13;49.67
9839;BME280;4958;48.150;11.506;2023-04-06T00:45:24;95795.88;;;5.06;50.09
9839;BME280;4958;48.150;11.506;2023-04-06T00:47:54;95800.44;;;5.02;50.42
9839;BME280;4958;48.150;11.506;2023-04-06T00:50:21;95793.22;;;4.98;50.24
9839;BME280;4958;48.150;11.506;2023-04-06T00:52:47;95796.13;;;5.03;49.64
9839;BME280;4958;48.150;11.506;2023-04-06T00:55:15;95799.50;;;5.03;49.96
9839;BME280;4958;48.150;11.506;2023-04-06T00:57:42;95796.41;;;5.09;49.97
9839;BME280;4958;48.150;11.506;2023-04-06T01:00:09;95800.56;;;5.10;49.70
9839;BME280;4958;48.150;11.506;2023-04-06T01:02:38;95794.66;;;5.10;49.75
9839;BME280;4958;48.150;11.506;2023-04-06T01:05:06;95795.31;;;5.02;49.69
9839;BME280;4958;48.150;11.506;2023-04-06T01:07:32;95800.19;;;4.96;49.95
9839;BME280;4958;48.150;11.506;2023-04-06T01:09:59;95805.84;;;4.90;50.55
9839;BME280;4958;48.150;11.506;2023-04-06T01:12:27;95790.94;;;4.85;50.43
9839;BME280;4958;48.150;11.506;2023-04-06T01:14:53;95799.25;;;4.87;50.40
9839;BME280;4958;48.150;11.506;2023-04-06T01:17:20;95791.06;;;4.93;50.16
9839;BME280;4958;48.150;11.506;2023-04-06T01:19:46;95791.31;;;4.90;50.06
9839;BME280;4958;48.150;11.506;2023-04-06T01:22:16;95796.84;;;4.85;50.19
9839;BME280;4958;48.150;11.506;2023-04-06T01:24:44;95787.97;;;4.90;50.02
9839;BME280;4958;48.150;11.506;2023-04-06T01:27:11;95791.59;;;4.87;49.88
9839;BME280;4958;48.150;11.506;2023-04-06T01:29:38;95788.25;;;4.77;50.70
9839;BME280;4958;48.150;11.506;2023-04-06T01:32:06;95779.53;;;4.79;50.35
9839;BME280;4958;48.150;11.506;2023-04-06T01:34:33;95784.50;;;4.71;51.11
9839;BME280;4958;48.150;11.506;2023-04-06T01:37:01;95787.84;;;4.72;50.74
9839;BME280;4958;48.150;11.506;2023-04-06T01:39:33;95786.78;;;4.74;50.88
9839;BME280;4958;48.150;11.506;2023-04-06T01:41:59;95782.50;;;4.75;50.20
9839;BME280;4958;48.150;11.506;2023-04-06T01:44:26;95780.63;;;4.77;50.03
9839;BME280;4958;48.150;11.506;2023-04-06T01:47:19;95772.44;;;4.73;50.65
9839;BME280;4958;48.150;11.506;2023-04-06T01:49:55;95768.13;;;4.74;50.25
9839;BME280;4958;48.150;11.506;2023-04-06T01:52:23;95774.16;;;4.73;50.21
9839;BME280;4958;48.150;11.506;2023-04-06T01:54:53;95775.50;;;4.67;50.16
9839;BME280;4958;48.150;11.506;2023-04-06T01:57:20;95771.63;;;4.54;50.73
9839;BME280;4958;48.150;11.506;2023-04-06T01:59:46;95765.59;;;4.55;50.41
9839;BME280;4958;48.150;11.506;2023-04-06T02:02:12;95770.16;;;4.51;50.57
9839;BME280;4958;48.150;11.506;2023-04-06T02:04:39;95777.53;;;4.54;50.12
9839;BME280;4958;48.150;11.506;2023-04-06T02:07:05;95766.13;;;4.48;50.93
9839;BME280;4958;48.150;11.506;2023-04-06T02:09:32;95781.97;;;4.42;50.79
9839;BME280;4958;48.150;11.506;2023-04-06T02:12:00;95771.50;;;4.36;51.19
9839;BME280;4958;48.150;11.506;2023-04-06T02:14:27;95772.97;;;4.38;50.61
9839;BME280;4958;48.150;11.506;2023-04-06T02:16:54;95764.25;;;4.41;50.28
9839;BME280;4958;48.150;11.506;2023-04-06T02:19:20;95768.69;;;4.39;50.65
9839;BME280;4958;48.150;11.506;2023-04-06T02:21:47;95770.41;;;4.48;50.60
9839;BME280;4958;48.150;11.506;2023-04-06T02:24:13;95765.59;;;4.55;50.04
9839;BME280;4958;48.150;11.506;2023-04-06T02:26:40;95765.59;;;4.55;49.81
9839;BME280;4958;48.150;11.506;2023-04-06T02:29:08;95767.06;;;4.57;49.54
9839;BME280;4958;48.150;11.506;2023-04-06T02:31:35;95766.41;;;4.55;49.97
9839;BME280;4958;48.150;11.506;2023-04-06T02:34:01;95768.16;;;4.55;49.58
9839;BME280;4958;48.150;11.506;2023-04-06T02:36:28;95758.47;;;4.58;50.05
9839;BME280;4958;48.150;11.506;2023-04-06T02:38:55;95760.91;;;4.60;49.72
9839;BME280;4958;48.150;11.506;2023-04-06T02:41:21;95760.91;;;4.60;49.31
9839;BME280;4958;48.150;11.506;2023-04-06T02:43:47;95765.88;;;4.61;49.89
9839;BME280;4958;48.150;11.506;2023-04-06T02:46:19;95762.09;;;4.65;49.62
9839;BME280;4958;48.150;11.506;2023-04-06T02:48:45;95757.78;;;4.66;49.32
9839;BME280;4958;48.150;11.506;2023-04-06T02:51:11;95754.31;;;4.67;49.29
9839;BME280;4958;48.150;11.506;2023-04-06T02:53:38;95754.06;;;4.60;49.52
9839;BME280;4958;48.150;11.506;2023-04-06T02:56:15;95759.28;;;4.59;50.14
9839;BME280;4958;48.150;11.506;2023-04-06T02:58:41;95745.88;;;4.57;49.82
9839;BME280;4958;48.150;11.506;2023-04-06T03:01:08;95752.16;;;4.53;50.18
9839;BME280;4958;48.150;11.506;2023-04-06T03:03:38;95752.16;;;4.43;50.36
9839;BME280;4958;48.150;11.506;2023-04-06T03:06:05;95755.69;;;4.42;50.68
9839;BME280;4958;48.150;11.506;2023-04-06T03:08:32;95766.94;;;4.39;50.68
9839;BME280;4958;48.150;11.506;2023-04-06T03:10:58;95758.63;;;4.37;50.23
9839;BME280;4958;48.150;11.506;2023-04-06T03:13:25;95760.75;;;4.32;50.48
9839;BME280;4958;48.150;11.506;2023-04-06T03:15:51;95764.78;;;4.35;50.73
9839;BME280;4958;48.150;11.506;2023-04-06T03:18:21;95758.06;;;4.43;50.03
9839;BME280;4958;48.150;11.506;2023-04-06T03:20:49;95754.59;;;4.35;50.47
9839;BME280;4958;48.150;11.506;2023-04-06T03:23:16;95754.06;;;4.31;50.33
9839;BME280;4958;48.150;11.506;2023-04-06T03:25:42;95754.72;;;4.24;50.90
9839;BME280;4958;48.150;11.506;2023-04-06T03:28:09;95764.66;;;4.17;50.78
9839;BME280;4958;48.150;11.506;2023-04-06T03:30:35;95757.00;;;4.17;50.56
9839;BME280;4958;48.150;11.506;2023-04-06T03:33:02;95763.03;;;4.16;50.80
9839;BME280;4958;48.150;11.506;2023-04-06T03:35:28;95758.19;;;4.13;51.14
9839;BME280;4958;48.150;11.506;2023-04-06T03:37:56;95759.66;;;4.06;51.45
9839;BME280;4958;48.150;11.506;2023-04-06T03:40:22;95761.13;;;3.99;52.01
9839;BME280;4958;48.150;11.506;2023-04-06T03:42:49;95772.69;;;4.03;51.90
9839;BME280;4958;48.150;11.506;2023-04-06T03:45:16;95766.34;;;4.07;51.61
9839;BME280;4958;48.150;11.506;2023-04-06T03:47:43;95760.59;;;4.05;52.08
9839;BME280;4958;48.150;11.506;2023-04-06T03:50:10;95772.00;;;4.10;51.88
9839;BME280;4958;48.150;11.506;2023-04-06T03:52:37;95771.34;;;4.18;51.53
9839;BME280;4958;48.150;11.506;2023-04-06T03:55:06;95772.16;;;4.28;51.02
9839;BME280;4958;48.150;11.506;2023-04-06T03:57:33;95774.16;;;4.25;51.75
9839;BME280;4958;48.150;11.506;2023-04-06T03:59:59;95771.22;;;4.20;51.22
9839;BME280;4958;48.150;11.506;2023-04-06T04:02:25;95781.41;;;4.20;51.47
9839;BME280;4958;48.150;11.506;2023-04-06T04:04:52;95780.34;;;4.22;51.37
9839;BME280;4958;48.150;11.506;2023-04-06T04:07:18;95778.44;;;4.24;51.48
9839;BME280;4958;48.150;11.506;2023-04-06T04:09:45;95781.00;;;4.24;51.76
9839;BME280;4958;48.150;11.506;2023-04-06T04:12:12;95782.22;;;4.20;51.68
9839;BME280;4958;48.150;11.506;2023-04-06T04:14:39;95785.44;;;4.22;51.33
9839;BME280;4958;48.150;11.506;2023-04-06T04:17:06;95783.03;;;4.21;51.71
9839;BME280;4958;48.150;11.506;2023-04-06T04:19:32;95785.53;;;4.11;52.24
9839;BME280;4958;48.150;11.506;2023-04-06T04:21:59;95790.13;;;4.17;52.02
9839;BME280;4958;48.150;11.506;2023-04-06T04:24:25;95779.38;;;4.13;51.44
9839;BME280;4958;48.150;11.506;2023-04-06T04:26:51;95787.44;;;4.19;51.33
9839;BME280;4958;48.150;11.506;2023-04-06T04:29:19;95794.69;;;4.23;51.69
9839;BME280;4958;48.150;11.506;2023-04-06T04:31:47;95793.22;;;4.21;51.36
9839;BME280;4958;48.150;11.506;2023-04-06T04:34:14;95800.97;;;4.09;51.93
9839;BME280;4958;48.150;11.506;2023-04-06T04:36:40;95791.97;;;4.05;51.80
9839;BME280;4958;48.150;11.506;2023-04-06T04:39:07;95792.78;;;4.06;51.90
9839;BME280;4958;48.150;11.506;2023-04-06T04:41:33;95791.31;;;4.13;51.47
9839;BME280;4958;48.150;11.506;2023-04-06T04:44:00;95796.81;;;4.08;51.97
9839;BME280;4958;48.150;11.506;2023-04-06T04:46:28;95803.63;;;3.98;52.32
9839;BME280;4958;48.150;11.506;2023-04-06T04:48:54;95795.84;;;4.00;52.14
9839;BME280;4958;48.150;11.506;2023-04-06T04:51:30;95794.00;;;4.02;52.29
9839;BME280;4958;48.150;11.506;2023-04-06T04:53:57;95791.84;;;4.07;51.76
9839;BME280;4958;48.150;11.506;2023-04-06T04:56:24;95783.13;;;4.09;52.06
9839;BME280;4958;48.150;11.506;2023-04-06T04:58:50;95797.06;;;4.05;51.88
9839;BME280;4958;48.150;11.506;2023-04-06T05:01:17;95794.38;;;3.97;52.15
9839;BME280;4958;48.150;11.506;2023-04-06T05:03:49;95797.69;;;3.88;52.92
9839;BME280;4958;48.150;11.506;2023-04-06T05:06:16;95794.88;;;3.81;53.42
9839;BME280;4958;48.150;11.506;2023-04-06T05:08:44;95796.94;;;3.97;52.78
9839;BME280;4958;48.150;11.506;2023-04-06T05:11:10;95786.88;;;4.05;52.52
9839;BME280;4958;48.150;11.506;2023-04-06T05:13:37;95786.63;;;4.08;52.47
9839;BME280;4958;48.150;11.506;2023-04-06T05:16:04;95795.31;;;4.06;52.42
9839;BME280;4958;48.150;11.506;2023-04-06T05:18:30;95801.91;;;4.08;52.30
9839;BME280;4958;48.150;11.506;2023-04-06T05:20:58;95798.69;;;4.16;51.96
9839;BME280;4958;48.150;11.506;2023-04-06T05:23:25;95796.44;;;4.23;51.82
9839;BME280;4958;48.150;11.506;2023-04-06T05:25:51;95799.78;;;4.33;52.03
9839;BME280;4958;48.150;11.506;2023-04-06T05:28:18;95796.19;;;4.35;51.62
9839;BME280;4958;48.150;11.506;2023-04-06T05:30:44;95795.13;;;4.38;52.20
9839;BME280;4958;48.150;11.506;2023-04-06T05:33:12;95802.06;;;4.45;51.41
9839;BME280;4958;48.150;11.506;2023-04-06T05:35:38;95803.81;;;4.45;51.92
9839;BME280;4958;48.150;11.506;2023-04-06T05:38:07;95810.41;;;4.47;52.36
9839;BME280;4958;48.150;11.506;2023-04-06T05:40:34;95797.13;;;4.54;51.73
9839;BME280;4958;48.150;11.506;2023-04-06T05:43:00;95799.41;;;4.57;51.52
9839;BME280;4958;48.150;11.506;2023-04-06T05:45:27;95798.59;;;4.66;51.12
9839;BME280;4958;48.150;11.506;2023-04-06T05:47:56;95802.50;;;4.60;55.57
9839;BME280;4958;48.150;11.506;2023-04-06T05:50:22;95795.50;;;4.62;51.51
9839;BME280;4958;48.150;11.506;2023-04-06T05:52:49;95797.78;;;4.65;51.06
9839;BME280;4958;48.150;11.506;2023-04-06T05:55:17;95808.53;;;4.69;50.98
9839;BME280;4958;48.150;11.506;2023-04-06T05:57:43;95809.59;;;4.76;50.88
9839;BME280;4958;48.150;11.506;2023-04-06T06:00:11;95809.88;;;4.73;50.30
9839;BME280;4958;48.150;11.506;2023-04-06T06:02:37;95813.09;;;4.75;50.53
9839;BME280;4958;48.150;11.506;2023-04-06T06:05:04;95804.34;;;4.87;50.25
9839;BME280;4958;48.150;11.506;2023-04-06T06:07:33;95808.50;;;4.88;50.30
9839;BME280;4958;48.150;11.506;2023-04-06T06:09:59;95801.53;;;4.90;50.33
9839;BME280;4958;48.150;11.506;2023-04-06T06:12:27;95803.94;;;4.92;50.50
9839;BME280;4958;48.150;11.506;2023-04-06T06:14:54;95805.28;;;4.96;50.02
9839;BME280;4958;48.150;11.506;2023-04-06T06:17:20;95804.22;;;4.98;50.12
9839;BME280;4958;48.150;11.506;2023-04-06T06:19:47;95802.72;;;5.05;49.85
9839;BME280;4958;48.150;11.506;2023-04-06T06:22:13;95808.88;;;5.12;49.38
9839;BME280;4958;48.150;11.506;2023-04-06T06:24:46;95802.81;;;5.23;49.42
9839;BME280;4958;48.150;11.506;2023-04-06T06:27:12;95807.78;;;5.34;49.49
9839;BME280;4958;48.150;11.506;2023-04-06T06:29:40;95805.59;;;5.39;48.93
9839;BME280;4958;48.150;11.506;2023-04-06T06:32:07;95808.78;;;5.51;49.31
9839;BME280;4958;48.150;11.506;2023-04-06T06:34:35;95805.63;;;5.67;49.04
9839;BME280;4958;48.150;11.506;2023-04-06T06:37:20;95804.75;;;5.85;49.12
9839;BME280;4958;48.150;11.506;2023-04-06T06:39:52;95801.25;;;5.96;47.97
9839;BME280;4958;48.150;11.506;2023-04-06T06:42:19;95808.28;;;6.12;47.93
9839;BME280;4958;48.150;11.506;2023-04-06T06:44:47;95807.81;;;6.16;47.57
9839;BME280;4958;48.150;11.506;2023-04-06T06:47:14;95806.56;;;6.30;47.32
9839;BME280;4958;48.150;11.506;2023-04-06T06:49:40;95808.03;;;6.50;47.24
9839;BME280;4958;48.150;11.506;2023-04-06T06:52:07;95803.09;;;6.57;46.99
9839;BME280;4958;48.150;11.506;2023-04-06T06:54:33;95805.03;;;6.73;46.82
9839;BME280;4958;48.150;11.506;2023-04-06T06:57:00;95799.56;;;6.93;46.43
9839;BME280;4958;48.150;11.506;2023-04-06T06:59:27;95810.75;;;7.10;45.96
9839;BME280;4958;48.150;11.506;2023-04-06T07:01:55;95812.81;;;7.33;45.84
9839;BME280;4958;48.150;11.506;2023-04-06T07:04:22;95814.53;;;7.24;44.87
9839;BME280;4958;48.150;11.506;2023-04-06T07:06:48;95814.09;;;7.28;45.14
9839;BME280;4958;48.150;11.506;2023-04-06T07:09:15;95814.13;;;7.37;45.42
9839;BME280;4958;48.150;11.506;2023-04-06T07:11:42;95814.63;;;7.40;45.07
9839;BME280;4958;48.150;11.506;2023-04-06T07:14:09;95812.22;;;7.39;44.93
9839;BME280;4958;48.150;11.506;2023-04-06T07:16:37;95821.28;;;7.59;44.73
9839;BME280;4958;48.150;11.506;2023-04-06T07:19:05;95815.88;;;7.62;43.32
9839;BME280;4958;48.150;11.506;2023-04-06T07:21:31;95817.13;;;7.58;43.35
9839;BME280;4958;48.150;11.506;2023-04-06T07:23:58;95821.69;;;7.72;43.83
9839;BME280;4958;48.150;11.506;2023-04-06T07:26:25;95811.25;;;7.66;43.35
9839;BME280;4958;48.150;11.506;2023-04-06T07:28:51;95817.69;;;7.70;43.86
9839;BME280;4958;48.150;11.506;2023-04-06T07:31:18;95819.97;;;7.81;43.72
9839;BME280;4958;48.150;11.506;2023-04-06T07:33:47;95821.06;;;7.78;43.04
9839;BME280;4958;48.150;11.506;2023-04-06T07:36:16;95824.59;;;8.27;43.09
9839;BME280;4958;48.150;11.506;2023-04-06T07:38:43;95822.63;;;8.55;42.20
9839;BME280;4958;48.150;11.506;2023-04-06T07:41:11;95811.25;;;8.66;42.74
9839;BME280;4958;48.150;11.506;2023-04-06T07:43:37;95822.81;;;8.70;42.45
9839;BME280;4958;48.150;11.506;2023-04-06T07:46:04;95817.03;;;8.92;41.19
9839;BME280;4958;48.150;11.506;2023-04-06T07:48:31;95815.91;;;9.27;41.14
9839;BME280;4958;48.150;11.506;2023-04-06T07:51:01;95810.41;;;9.55;39.08
9839;BME280;4958;48.150;11.506;2023-04-06T07:53:29;95807.41;;;9.90;38.40
9839;BME280;4958;48.150;11.506;2023-04-06T07:55:58;95805.06;;;10.20;37.87
9839;BME280;4958;48.150;11.506;2023-04-06T07:58:24;95804.34;;;10.34;37.25
9839;BME280;4958;48.150;11.506;2023-04-06T08:00:53;95809.50;;;10.34;36.50
9839;BME280;4958;48.150;11.506;2023-04-06T08:03:20;95806.13;;;10.33;37.04
9839;BME280;4958;48.150;11.506;2023-04-06T08:05:50;95816.94;;;10.21;36.79
9839;BME280;4958;48.150;11.506;2023-04-06T08:08:16;95811.75;;;9.90;36.62
9839;BME280;4958;48.150;11.506;2023-04-06T08:10:44;95807.47;;;9.66;37.55
9839;BME280;4958;48.150;11.506;2023-04-06T08:13:12;95812.13;;;9.79;37.80
9839;BME280;4958;48.150;11.506;2023-04-06T08:15:39;95809.72;;;9.69;37.21
9839;BME280;4958;48.150;11.506;2023-04-06T08:18:05;95809.56;;;9.70;37.56
9839;BME280;4958;48.150;11.506;2023-04-06T08:20:32;95815.66;;;9.78;37.51
9839;BME280;4958;48.150;11.506;2023-04-06T08:22:58;95822.94;;;10.05;36.96
9839;BME280;4958;48.150;11.506;2023-04-06T08:25:24;95811.03;;;10.43;36.65
9839;BME280;4958;48.150;11.506;2023-04-06T08:27:56;95812.16;;;10.71;36.65
9839;BME280;4958;48.150;11.506;2023-04-06T08:30:23;95809.13;;;10.68;35.96
9839;BME280;4958;48.150;11.506;2023-04-06T08:32:52;95803.72;;;11.00;35.76
9839;BME280;4958;48.150;11.506;2023-04-06T08:35:20;95807.06;;;11.24;34.57
9839;BME280;4958;48.150;11.506;2023-04-06T08:37:47;95810.63;;;11.37;34.53
9839;BME280;4958;48.150;11.506;2023-04-06T08:40:13;95811.66;;;11.51;33.89
9839;BME280;4958;48.150;11.506;2023-04-06T08:42:47;95804.25;;;11.48;34.22
9839;BME280;4958;48.150;11.506;2023-04-06T08:45:17;95806.69;;;11.79;34.49
9839;BME280;4958;48.150;11.506;2023-04-06T08:47:46;95806.75;;;12.15;32.95
9839;BME280;4958;48.150;11.506;2023-04-06T08:50:15;95808.28;;;12.09;33.25
9839;BME280;4958;48.150;11.506;2023-04-06T08:52:43;95799.94;;;12.43;32.70
9839;BME280;4958;48.150;11.506;2023-04-06T08:55:13;95803.09;;;12.24;31.42
9839;BME280;4958;48.150;11.506;2023-04-06T08:57:40;95805.31;;;12.27;31.38
9839;BME280;4958;48.150;11.506;2023-04-06T09:00:10;95799.91;;;12.58;32.12
9839;BME280;4958;48.150;11.506;2023-04-06T09:02:39;95795.81;;;12.70;32.20
9839;BME280;4958;48.150;11.506;2023-04-06T09:05:11;95804.28;;;12.79;30.55
9839;BME280;4958;48.150;11.506;2023-04-06T09:07:42;95798.19;;;12.65;30.26
9839;BME280;4958;48.150;11.506;2023-04-06T09:10:09;95794.28;;;12.55;30.39
9839;BME280;4958;48.150;11.506;2023-04-06T09:12:35;95799.19;;;12.86;29.64
9839;BME280;4958;48.150;11.506;2023-04-06T09:15:02;95786.13;;;13.15;29.74
9839;BME280;4958;48.150;11.506;2023-04-06T09:17:32;95796.09;;;13.18;29.31
9839;BME280;4958;48.150;11.506;2023-04-06T09:20:01;95788.34;;;13.46;29.37
9839;BME280;4958;48.150;11.506;2023-04-06T09:22:38;95786.06;;;13.64;29.53
9839;BME280;4958;48.150;11.506;2023-04-06T09:25:06;95790.50;;;13.77;29.76
9839;BME280;4958;48.150;11.506;2023-04-06T09:27:34;95788.97;;;13.89;29.50
9839;BME280;4958;48.150;11.506;2023-04-06T09:30:11;95788.31;;;14.15;29.14
9839;BME280;4958;48.150;11.506;2023-04-06T09:32:46;95781.47;;;14.01;28.20
9839;BME280;4958;48.150;11.506;2023-04-06T09:35:15;95783.88;;;13.61;29.17
9839;BME280;4958;48.150;11.506;2023-04-06T09:37:42;95784.66;;;13.62;29.71
9839;BME280;4958;48.150;11.506;2023-04-06T09:40:10;95792.97;;;13.29;29.52
9839;BME280;4958;48.150;11.506;2023-04-06T09:42:40;95787.22;;;13.27;29.61
9839;BME280;4958;48.150;11.506;2023-04-06T09:45:08;95780.47;;;13.61;30.15
9839;BME280;4958;48.150;11.506;2023-04-06T09:47:36;95780.16;;;13.77;31.10
9839;BME280;4958;48.150;11.506;2023-04-06T09:50:09;95780.22;;;13.90;28.85
9839;BME280;4958;48.150;11.506;2023-04-06T09:52:41;95776.59;;;13.50;28.56
9839;BME280;4958;48.150;11.506;2023-04-06T09:55:09;95777.91;;;13.11;30.16
9839;BME280;4958;48.150;11.506;2023-04-06T09:57:42;95778.13;;;13.38;29.36
9839;BME280;4958;48.150;11.506;2023-04-06T10:00:15;95775.00;;;13.49;30.00
9839;BME280;4958;48.150;11.506;2023-04-06T10:02:48;95768.16;;;13.69;29.20
9839;BME280;4958;48.150;11.506;2023-04-06T10:05:19;95771.19;;;13.38;29.38
9839;BME280;4958;48.150;11.506;2023-04-06T10:07:57;95766.47;;;13.21;30.12
9839;BME280;4958;48.150;11.506;2023-04-06T10:10:23;95761.41;;;12.85;29.94
9839;BME280;4958;48.150;11.506;2023-04-06T10:12:50;95762.03;;;13.14;30.59
9839;BME280;4958;48.150;11.506;2023-04-06T10:15:17;95768.75;;;13.65;29.91
9839;BME280;4958;48.150;11.506;2023-04-06T10:17:44;95761.50;;;13.88;28.81
9839;BME280;4958;48.150;11.506;2023-04-06T10:20:23;95757.44;;;14.27;28.20
9839;BME280;4958;48.150;11.506;2023-04-06T10:22:59;95751.22;;;14.62;28.39
9839;BME280;4958;48.150;11.506;2023-04-06T10:25:30;95757.75;;;14.65;27.66
9839;BME280;4958;48.150;11.506;2023-04-06T10:28:00;95754.19;;;14.59;27.74
9839;BME280;4958;48.150;11.506;2023-04-06T10:30:30;95747.59;;;14.57;28.16
9839;BME280;4958;48.150;11.506;2023-04-06T10:33:12;95743.03;;;14.72;27.75
9839;BME280;4958;48.150;11.506;2023-04-06T10:35:43;95741.84;;;14.94;28.03
9839;BME280;4958;48.150;11.506;2023-04-06T10:38:11;95742.44;;;15.09;28.62
9839;BME280;4958;48.150;11.506;2023-04-06T10:40:42;95748.22;;;15.31;27.90
9839;BME280;4958;48.150;11.506;2023-04-06T10:43:10;95742.03;;;15.39;27.98
9839;BME280;4958;48.150;11.506;2023-04-06T10:45:38;95737.22;;;15.49;27.29
9839;BME280;4958;48.150;11.506;2023-04-06T10:48:15;95738.56;;;14.39;27.42
9839;BME280;4958;48.150;11.506;2023-04-06T10:50:44;95731.97;;;14.24;28.06
9839;BME280;4958;48.150;11.506;2023-04-06T10:53:20;95736.06;;;14.05;29.08
9839;BME280;4958;48.150;11.506;2023-04-06T10:55:49;95737.34;;;13.74;29.43
9839;BME280;4958;48.150;11.506;2023-04-06T10:58:18;95731.66;;;13.51;28.98
9839;BME280;4958;48.150;11.506;2023-04-06T11:00:48;95736.94;;;13.36;29.03
9839;BME280;4958;48.150;11.506;2023-04-06T11:03:15;95736.13;;;13.70;28.92
9839;BME280;4958;48.150;11.506;2023-04-06T11:05:45;95736.88;;;14.05;29.32
9839;BME280;4958;48.150;11.506;2023-04-06T11:08:24;95731.56;;;14.27;29.45
9839;BME280;4958;48.150;11.506;2023-04-06T11:10:50;95727.09;;;14.62;29.40
9839;BME280;4958;48.150;11.506;2023-04-06T11:13:22;95713.34;;;14.81;29.54
9839;BME280;4958;48.150;11.506;2023-04-06T11:15:50;95722.69;;;15.02;29.53
9839;BME280;4958;48.150;11.506;2023-04-06T11:18:17;95721.31;;;14.93;28.02
9839;BME280;4958;48.150;11.506;2023-04-06T11:20:47;95712.34;;;14.75;27.31
9839;BME280;4958;48.150;11.506;2023-04-06T11:23:24;95711.53;;;14.68;27.36
9839;BME280;4958;48.150;11.506;2023-04-06T11:25:57;95708.34;;;14.66;27.68
9839;BME280;4958;48.150;11.506;2023-04-06T11:28:26;95704.53;;;14.42;27.83
9839;BME280;4958;48.150;11.506;2023-04-06T11:30:55;95699.53;;;14.47;28.58
9839;BME280;4958;48.150;11.506;2023-04-06T11:33:24;95703.03;;;14.13;28.36
9839;BME280;4958;48.150;11.506;2023-04-06T11:35:52;95695.84;;;14.09;29.33
9839;BME280;4958;48.150;11.506;2023-04-06T11:38:18;95701.09;;;14.22;29.53
9839;BME280;4958;48.150;11.506;2023-04-06T11:40:52;95699.91;;;14.31;29.53
9839;BME280;4958;48.150;11.506;2023-04-06T11:43:26;95701.38;;;14.60;30.01
9839;BME280;4958;48.150;11.506;2023-04-06T11:46:02;95696.97;;;14.87;29.19
9839;BME280;4958;48.150;11.506;2023-04-06T11:48:29;95695.97;;;14.95;29.03
9839;BME280;4958;48.150;11.506;2023-04-06T11:51:01;95692.19;;;14.91;28.13
9839;BME280;4958;48.150;11.506;2023-04-06T11:53:43;95692.00;;;14.85;27.72
9839;BME280;4958;48.150;11.506;2023-04-06T11:56:24;95698.34;;;15.03;27.83
9839;BME280;4958;48.150;11.506;2023-04-06T11:58:53;95685.19;;;15.17;28.14
9839;BME280;4958;48.150;11.506;2023-04-06T12:01:20;95678.38;;;15.30;28.23
9839;BME280;4958;48.150;11.506;2023-04-06T12:03:46;95680.13;;;15.42;27.54
9839;BME280;4958;48.150;11.506;2023-04-06T12:06:15;95678.72;;;15.40;26.80
9839;BME280;4958;48.150;11.506;2023-04-06T12:08:42;95669.94;;;15.41;26.69
9839;BME280;4958;48.150;11.506;2023-04-06T12:11:12;95683.75;;;15.35;26.82
9839;BME280;4958;48.150;11.506;2023-04-06T12:13:40;95684.50;;;15.55;26.25
9839;BME280;4958;48.150;11.506;2023-04-06T12:16:12;95675.31;;;15.52;25.49
9839;BME280;4958;48.150;11.506;2023-04-06T12:18:39;95676.31;;;15.45;25.93
9839;BME280;4958;48.150;11.506;2023-04-06T12:21:06;95671.97;;;15.32;26.38
9839;BME280;4958;48.150;11.506;2023-04-06T12:23:35;95667.13;;;15.49;26.02
9839;BME280;4958;48.150;11.506;2023-04-06T12:26:02;95671.88;;;15.72;26.02
9839;BME280;4958;48.150;11.506;2023-04-06T12:28:29;95667.88;;;15.76;26.76
9839;BME280;4958;48.150;11.506;2023-04-06T12:30:59;95665.19;;;15.31;27.38
9839;BME280;4958;48.150;11.506;2023-04-06T12:33:27;95668.75;;;15.57;28.16
9839;BME280;4958;48.150;11.506;2023-04-06T12:35:53;95659.16;;;15.44;27.34
9839;BME280;4958;48.150;11.506;2023-04-06T12:38:20;95651.03;;;15.27;28.48
9839;BME280;4958;48.150;11.506;2023-04-06T12:40:46;95662.22;;;15.28;27.75
9839;BME280;4958;48.150;11.506;2023-04-06T12:43:13;95654.19;;;15.42;27.69
9839;BME280;4958;48.150;11.506;2023-04-06T12:45:39;95657.75;;;15.54;26.36
9839;BME280;4958;48.150;11.506;2023-04-06T12:48:08;95657.56;;;15.56;26.54
9839;BME280;4958;48.150;11.506;2023-04-06T12:50:35;95653.72;;;15.65;27.52
9839;BME280;4958;48.150;11.506;2023-04-06T12:53:01;95658.31;;;15.70;26.62
9839;BME280;4958;48.150;11.506;2023-04-06T12:55:30;95647.13;;;15.76;26.04
9839;BME280;4958;48.150;11.506;2023-04-06T12:57:59;95646.25;;;15.82;26.44
9839;BME280;4958;48.150;11.506;2023-04-06T13:00:28;95647.59;;;15.46;26.54
9839;BME280;4958;48.150;11.506;2023-04-06T13:02:57;95648.31;;;14.96;27.55
9839;BME280;4958;48.150;11.506;2023-04-06T13:05:24;95649.91;;;14.83;27.75
9839;BME280;4958;48.150;11.506;2023-04-06T13:07:51;95647.94;;;14.52;27.98
9839;BME280;4958;48.150;11.506;2023-04-06T13:10:17;95643.31;;;14.28;28.79
9839;BME280;4958;48.150;11.506;2023-04-06T13:12:44;95636.69;;;14.06;28.97
9839;BME280;4958;48.150;11.506;2023-04-06T13:15:13;95643.09;;;14.30;29.51
9839;BME280;4958;48.150;11.506;2023-04-06T13:18:06;95642.56;;;14.61;27.89
9839;BME280;4958;48.150;11.506;2023-04-06T13:20:36;95638.16;;;14.81;27.49
9839;BME280;4958;48.150;11.506;2023-04-06T13:23:02;95632.34;;;15.05;27.37